createdAt,value
2022-10-18T00:01:10.994Z,25.38
2022-10-18T00:03:39.683Z,25.40
2022-10-18T00:06:11.784Z,26.40
2022-10-18T00:08:39.773Z,24.00
2022-10-18T00:11:08.536Z,23.40
2022-10-18T00:13:37.775Z,24.17
2022-10-18T00:16:15.111Z,23.75
2022-10-18T00:18:44.234Z,24.13
2022-10-18T00:21:19.034Z,23.67
2022-10-18T00:23:48.894Z,22.70
2022-10-18T00:26:20.545Z,24.23
2022-10-18T00:28:53.709Z,23.15
2022-10-18T00:31:26.806Z,22.88
2022-10-18T00:33:58.284Z,25.60
2022-10-18T00:36:28.750Z,23.70
2022-10-18T00:38:57.250Z,24.30
2022-10-18T00:41:29.733Z,24.00
2022-10-18T00:44:02.309Z,23.52
2022-10-18T00:46:34.084Z,25.17
2022-10-18T00:49:07.534Z,25.45
2022-10-18T00:51:42.603Z,25.88
2022-10-18T00:54:11.474Z,26.40
2022-10-18T00:56:39.935Z,26.20
2022-10-18T00:59:08.511Z,26.40
2022-10-18T01:01:37.903Z,26.23
2022-10-18T01:04:05.975Z,24.23
2022-10-18T01:06:50.576Z,23.55
2022-10-18T01:09:29.739Z,23.92
2022-10-18T01:12:20.471Z,23.73
2022-10-18T01:15:03.411Z,23.88
2022-10-18T01:17:44.346Z,24.55
2022-10-18T01:21:06.804Z,23.70
2022-10-18T01:24:01.461Z,24.35
2022-10-18T01:27:01.790Z,25.42
2022-10-18T01:29:50.709Z,25.27
2022-10-18T01:32:26.576Z,23.75
2022-10-18T01:35:03.939Z,26.77
2022-10-18T01:37:35.404Z,25.70
2022-10-18T01:40:07.636Z,24.98
2022-10-18T01:42:35.519Z,23.25
2022-10-18T01:45:08.428Z,23.98
2022-10-18T01:47:39.254Z,24.27
2022-10-18T01:50:08.298Z,22.73
2022-10-18T01:52:36.334Z,24.88
2022-10-18T01:55:07.150Z,25.20
2022-10-18T01:57:41.455Z,24.65
2022-10-18T02:00:17.461Z,23.63
2022-10-18T02:02:54.288Z,25.13
2022-10-18T02:05:33.249Z,24.27
2022-10-18T02:08:23.241Z,23.15
2022-10-18T02:10:58.734Z,24.60
2022-10-18T02:13:34.291Z,24.95
2022-10-18T02:16:13.020Z,26.83
2022-10-18T02:18:49.904Z,25.13
2022-10-18T02:21:24.633Z,25.20
2022-10-18T02:23:53.089Z,25.20
2022-10-18T02:26:21.312Z,26.67
2022-10-18T02:28:50.289Z,28.50
2022-10-18T02:31:26.372Z,27.95
2022-10-18T02:34:02.369Z,27.42
2022-10-18T02:36:38.122Z,26.42
2022-10-18T02:39:16.661Z,28.55
2022-10-18T02:41:45.038Z,28.55
2022-10-18T02:44:13.231Z,28.55
2022-10-18T02:46:42.838Z,25.73
2022-10-18T02:49:11.979Z,25.30
2022-10-18T02:51:39.791Z,25.33
2022-10-18T02:54:08.442Z,25.83
2022-10-18T02:56:36.664Z,25.33
2022-10-18T02:59:07.227Z,25.77
2022-10-18T03:01:36.668Z,26.67
2022-10-18T03:04:05.331Z,26.80
2022-10-18T03:06:35.159Z,25.77
2022-10-18T03:09:04.591Z,25.77
2022-10-18T03:11:32.779Z,26.33
2022-10-18T03:14:01.809Z,25.75
2022-10-18T03:16:29.977Z,25.80
2022-10-18T03:18:57.923Z,26.02
2022-10-18T03:21:26.036Z,25.50
2022-10-18T03:23:56.015Z,27.08
2022-10-18T03:26:24.084Z,25.80
2022-10-18T03:28:52.163Z,26.15
2022-10-18T03:31:20.426Z,27.30
2022-10-18T03:33:48.593Z,24.02
2022-10-18T03:36:18.356Z,24.17
2022-10-18T03:38:46.572Z,26.60
2022-10-18T03:41:15.720Z,25.27
2022-10-18T03:43:43.741Z,24.13
2022-10-18T03:46:11.649Z,22.42
2022-10-18T03:48:39.465Z,24.20
2022-10-18T03:51:07.612Z,25.73
2022-10-18T03:53:44.377Z,25.35
2022-10-18T03:56:12.242Z,24.90
2022-10-18T03:58:41.344Z,25.50
2022-10-18T04:01:09.330Z,24.15
2022-10-18T04:03:37.217Z,25.83
2022-10-18T04:06:05.252Z,25.63
2022-10-18T04:08:33.091Z,25.05
2022-10-18T04:11:08.243Z,24.73
2022-10-18T04:13:36.305Z,27.17
2022-10-18T04:16:05.995Z,26.75
2022-10-18T04:18:33.763Z,28.77
2022-10-18T04:21:01.705Z,27.88
2022-10-18T04:23:31.800Z,28.65
2022-10-18T04:26:02.086Z,31.65
2022-10-18T04:28:36.229Z,32.13
2022-10-18T04:31:06.408Z,31.30
2022-10-18T04:33:34.377Z,30.77
2022-10-18T04:36:03.573Z,33.38
2022-10-18T04:38:31.573Z,33.17
2022-10-18T04:40:59.431Z,30.23
2022-10-18T04:43:28.716Z,30.38
2022-10-18T04:45:56.816Z,31.85
2022-10-18T04:48:26.776Z,28.90
2022-10-18T04:50:54.625Z,29.35
2022-10-18T04:53:25.832Z,29.40
2022-10-18T04:55:54.061Z,28.88
2022-10-18T04:58:22.044Z,29.63
2022-10-18T05:00:50.720Z,28.55
2022-10-18T05:03:20.685Z,30.42
2022-10-18T05:06:01.374Z,29.75
2022-10-18T05:08:32.865Z,28.70
2022-10-18T05:11:01.721Z,30.15
2022-10-18T05:13:30.730Z,28.60
2022-10-18T05:16:00.126Z,29.30
2022-10-18T05:18:28.071Z,30.02
2022-10-18T05:20:57.465Z,29.55
2022-10-18T05:23:25.852Z,30.42
2022-10-18T05:25:54.248Z,32.17
2022-10-18T05:28:41.750Z,33.53
2022-10-18T05:31:12.008Z,33.38
2022-10-18T05:33:40.572Z,29.67
2022-10-18T05:36:10.571Z,31.67
2022-10-18T05:38:41.858Z,28.67
2022-10-18T05:41:10.714Z,30.27
2022-10-18T05:43:39.275Z,29.73
2022-10-18T05:46:13.681Z,32.10
2022-10-18T05:48:44.041Z,29.30
2022-10-18T05:51:13.194Z,31.67
2022-10-18T05:53:41.135Z,32.17
2022-10-18T05:56:12.418Z,32.30
2022-10-18T05:58:41.552Z,33.45
2022-10-18T06:01:10.428Z,33.53
2022-10-18T06:03:38.599Z,34.95
2022-10-18T06:06:11.179Z,34.97
2022-10-18T06:08:42.260Z,35.95
2022-10-18T06:11:20.730Z,35.60
2022-10-18T06:13:51.406Z,36.00
2022-10-18T06:16:22.855Z,36.33
2022-10-18T06:18:53.905Z,36.67
2022-10-18T06:21:23.292Z,36.13
2022-10-18T06:23:54.788Z,38.42
2022-10-18T06:26:23.146Z,36.67
2022-10-18T06:28:51.447Z,34.88
2022-10-18T06:31:22.304Z,36.05
2022-10-18T06:33:50.525Z,36.67
2022-10-18T06:36:23.982Z,38.45
2022-10-18T06:38:56.226Z,37.20
2022-10-18T06:41:24.299Z,37.85
2022-10-18T06:43:56.919Z,41.25
2022-10-18T06:46:25.692Z,39.70
2022-10-18T06:48:53.678Z,39.53
2022-10-18T06:51:22.567Z,38.72
2022-10-18T06:54:13.002Z,40.03
2022-10-18T06:56:41.331Z,38.42
2022-10-18T06:59:09.337Z,41.20
2022-10-18T07:01:38.294Z,41.20
2022-10-18T07:04:07.336Z,40.53
2022-10-18T07:06:37.968Z,35.08
2022-10-18T07:09:05.863Z,33.67
2022-10-18T07:11:33.674Z,34.72
2022-10-18T07:14:05.126Z,32.75
2022-10-18T07:16:34.673Z,33.28
2022-10-18T07:19:03.140Z,33.92
2022-10-18T07:21:31.745Z,33.70
2022-10-18T07:24:01.382Z,33.95
2022-10-18T07:26:33.106Z,34.05
2022-10-18T07:29:07.991Z,34.35
2022-10-18T07:31:38.489Z,32.67
2022-10-18T07:34:07.815Z,34.20
2022-10-18T07:36:37.222Z,32.53
2022-10-18T07:39:05.924Z,32.83
2022-10-18T07:41:36.057Z,27.13
2022-10-18T07:44:05.775Z,29.83
2022-10-18T07:46:34.050Z,28.25
2022-10-18T07:49:01.960Z,28.08
2022-10-18T07:51:32.652Z,28.25
2022-10-18T07:54:00.407Z,28.98
2022-10-18T07:56:29.531Z,28.08
2022-10-18T07:58:57.521Z,28.27
2022-10-18T08:01:31.571Z,27.73
2022-10-18T08:04:06.101Z,27.42
2022-10-18T08:06:36.671Z,26.85
2022-10-18T08:09:05.850Z,27.85
2022-10-18T08:11:35.947Z,25.88
2022-10-18T08:14:04.882Z,26.67
2022-10-18T08:16:34.635Z,26.40
2022-10-18T08:19:02.623Z,26.67
2022-10-18T08:21:30.767Z,24.63
2022-10-18T08:23:58.715Z,25.05
2022-10-18T08:26:26.974Z,24.38
2022-10-18T08:29:10.265Z,21.35
2022-10-18T08:31:44.576Z,21.58
2022-10-18T08:34:17.192Z,23.60
2022-10-18T08:36:50.953Z,19.75
2022-10-18T08:39:19.443Z,20.42
2022-10-18T08:42:16.077Z,20.48
2022-10-18T08:44:48.693Z,21.55
2022-10-18T08:47:21.650Z,20.90
2022-10-18T08:49:54.825Z,19.42
2022-10-18T08:52:33.401Z,20.27
2022-10-18T08:55:08.029Z,20.05
2022-10-18T08:57:36.313Z,19.65
2022-10-18T09:00:17.085Z,18.67
2022-10-18T09:03:15.586Z,19.52
2022-10-18T09:05:52.773Z,18.90
2022-10-18T09:08:49.852Z,19.02
2022-10-18T09:11:47.138Z,19.73
2022-10-18T09:14:57.330Z,18.27
2022-10-18T09:17:43.330Z,17.15
2022-10-18T09:22:56.301Z,17.02
2022-10-18T09:25:29.522Z,16.83
2022-10-18T09:28:16.360Z,17.10
2022-10-18T09:30:59.456Z,16.67
2022-10-18T09:33:46.945Z,16.77
2022-10-18T09:36:21.736Z,15.63
2022-10-18T09:38:58.545Z,15.90
2022-10-18T09:41:40.872Z,15.95
2022-10-18T09:44:19.865Z,15.55
2022-10-18T09:46:55.799Z,14.88
2022-10-18T09:49:30.477Z,14.48
2022-10-18T09:52:08.023Z,7.68
2022-10-18T09:54:44.312Z,10.07
2022-10-18T09:57:23.460Z,12.65
2022-10-18T09:59:51.465Z,12.88
2022-10-18T10:02:23.195Z,7.40
2022-10-18T10:04:54.060Z,11.60
2022-10-18T10:07:29.931Z,12.32
2022-10-18T10:10:13.377Z,12.15
2022-10-18T10:12:43.947Z,10.55
2022-10-18T10:15:22.586Z,10.13
2022-10-18T10:18:00.229Z,9.52
2022-10-18T10:20:37.022Z,10.85
2022-10-18T10:23:20.323Z,10.85
2022-10-18T10:25:53.110Z,9.23
2022-10-18T10:28:28.840Z,8.85
2022-10-18T10:31:25.679Z,9.32
2022-10-18T10:34:01.701Z,7.65
2022-10-18T10:36:31.545Z,7.32
2022-10-18T10:39:12.631Z,7.50
2022-10-18T10:41:41.618Z,7.82
2022-10-18T10:44:17.451Z,7.50
2022-10-18T10:46:48.601Z,7.80
2022-10-18T10:49:39.634Z,7.03
2022-10-18T10:52:27.794Z,5.85
2022-10-18T10:55:33.982Z,6.15
2022-10-18T10:58:03.193Z,6.25
2022-10-18T11:00:40.637Z,5.38
2022-10-18T11:03:27.939Z,5.80
2022-10-18T11:06:00.300Z,5.38
2022-10-18T11:08:36.017Z,5.65
2022-10-18T11:11:22.886Z,5.35
2022-10-18T11:14:13.803Z,5.43
2022-10-18T11:16:58.780Z,5.65
2022-10-18T11:19:39.264Z,5.97
2022-10-18T11:22:17.258Z,5.63
2022-10-18T11:24:48.100Z,4.90
2022-10-18T11:27:27.424Z,3.95
2022-10-18T11:30:21.661Z,3.97
2022-10-18T11:33:10.094Z,3.58
2022-10-18T11:35:50.181Z,3.50
2022-10-18T11:38:37.289Z,3.90
2022-10-18T11:41:37.517Z,3.28
2022-10-18T11:44:24.822Z,4.20
2022-10-18T11:47:08.411Z,3.55
2022-10-18T11:49:55.704Z,3.38
2022-10-18T11:52:39.552Z,3.25
2022-10-18T11:55:39.981Z,3.10
2022-10-18T11:58:31.875Z,3.45
2022-10-18T12:01:13.122Z,3.88
2022-10-18T12:03:59.360Z,3.33
2022-10-18T12:06:34.963Z,3.35
2022-10-18T12:09:14.495Z,2.70
2022-10-18T12:11:55.502Z,3.05
2022-10-18T12:14:29.750Z,2.83
2022-10-18T12:17:41.702Z,2.88
2022-10-18T12:19:59.301Z,2.70
2022-10-18T12:22:36.170Z,2.67
2022-10-18T12:25:04.912Z,2.88
2022-10-18T12:27:40.939Z,2.70
2022-10-18T12:30:24.749Z,3.22
2022-10-18T12:33:26.758Z,2.35
2022-10-18T12:36:11.473Z,2.22
2022-10-18T12:38:45.378Z,1.90
2022-10-18T12:41:22.296Z,2.00
2022-10-18T12:43:58.940Z,1.92
2022-10-18T12:46:46.795Z,1.88
2022-10-18T12:49:27.399Z,2.30
2022-10-18T12:51:59.565Z,2.08
2022-10-18T12:54:31.233Z,1.88
2022-10-18T12:57:01.908Z,1.67
2022-10-18T12:59:51.070Z,1.65
2022-10-18T13:02:31.575Z,1.30
2022-10-18T13:05:33.790Z,1.95
2022-10-18T13:08:41.878Z,1.52
2022-10-18T13:11:33.348Z,1.48
2022-10-18T13:14:59.094Z,1.48
2022-10-18T13:17:43.565Z,1.35
2022-10-18T13:20:38.528Z,1.60
2022-10-18T13:23:33.968Z,1.63
2022-10-18T13:26:21.793Z,1.35
2022-10-18T13:29:05.148Z,1.50
2022-10-18T13:31:43.541Z,1.40
2022-10-18T13:34:25.857Z,1.63
2022-10-18T13:37:01.821Z,1.60
2022-10-18T13:39:32.198Z,1.50
2022-10-18T13:42:32.156Z,1.50
2022-10-18T13:45:44.471Z,1.48
2022-10-18T13:48:48.311Z,1.60
2022-10-18T13:51:48.366Z,1.27
2022-10-18T13:54:55.926Z,1.20
2022-10-18T13:57:51.531Z,1.40
2022-10-18T14:00:55.311Z,1.13
2022-10-18T14:03:57.614Z,1.40
2022-10-18T14:06:34.592Z,1.30
2022-10-18T14:09:25.685Z,1.30
2022-10-18T14:12:19.025Z,1.00
2022-10-18T14:14:56.775Z,1.40
2022-10-18T14:17:35.095Z,1.10
2022-10-18T14:20:17.214Z,1.33
2022-10-18T14:22:53.486Z,1.30
2022-10-18T14:25:27.636Z,1.40
2022-10-18T14:28:13.960Z,1.40
2022-10-18T14:30:54.730Z,1.65
2022-10-18T14:33:31.604Z,1.40
2022-10-18T14:36:05.597Z,1.40
2022-10-18T14:38:36.330Z,1.33
2022-10-18T14:41:07.095Z,1.17
2022-10-18T14:44:21.058Z,2.03
2022-10-18T14:46:52.596Z,1.52
2022-10-18T14:49:21.803Z,1.38
2022-10-18T14:51:52.825Z,1.20
2022-10-18T14:54:30.666Z,1.35
2022-10-18T14:57:01.254Z,1.33
2022-10-18T14:59:37.593Z,1.40
2022-10-18T15:02:15.155Z,1.30
2022-10-18T15:04:45.908Z,1.05
2022-10-18T15:07:17.475Z,1.10
2022-10-18T15:09:47.321Z,1.27
2022-10-18T15:12:17.344Z,0.80
2022-10-18T15:14:48.317Z,1.10
2022-10-18T15:17:22.173Z,1.15
2022-10-18T15:19:59.423Z,1.10
2022-10-18T15:22:33.058Z,0.93
2022-10-18T15:25:16.895Z,1.38
2022-10-18T15:27:49.680Z,1.25
2022-10-18T15:30:27.760Z,1.50
2022-10-18T15:32:59.657Z,0.80
2022-10-18T15:35:31.870Z,1.00
2022-10-18T15:38:12.475Z,0.95
2022-10-18T15:40:42.479Z,1.17
2022-10-18T15:43:36.742Z,1.33
2022-10-18T15:46:07.087Z,1.17
2022-10-18T15:48:38.516Z,1.27
2022-10-18T15:51:10.161Z,0.90
2022-10-18T15:53:52.010Z,1.08
2022-10-18T15:56:38.276Z,1.10
2022-10-18T15:59:22.137Z,0.90
2022-10-18T16:01:58.941Z,1.38
2022-10-18T16:04:34.545Z,1.17
2022-10-18T16:07:02.278Z,1.20
2022-10-18T16:09:30.066Z,1.35
2022-10-18T16:11:58.460Z,1.20
2022-10-18T16:14:27.020Z,1.40
2022-10-18T16:17:07.115Z,1.35
2022-10-18T16:19:34.875Z,1.20
2022-10-18T16:22:06.593Z,1.45
2022-10-18T16:24:35.314Z,1.27
2022-10-18T16:27:03.340Z,1.52
2022-10-18T16:29:33.187Z,1.48
2022-10-18T16:32:02.339Z,1.70
2022-10-18T16:34:32.054Z,1.42
2022-10-18T16:37:00.054Z,1.30
2022-10-18T16:39:29.841Z,1.75
2022-10-18T16:41:57.598Z,1.30
2022-10-18T16:44:25.436Z,1.60
2022-10-18T16:46:56.315Z,2.22
2022-10-18T16:49:26.645Z,1.98
2022-10-18T16:51:55.246Z,2.05
2022-10-18T16:54:23.580Z,2.50
2022-10-18T16:56:51.396Z,2.10
2022-10-18T16:59:25.736Z,2.25
2022-10-18T17:01:53.625Z,2.05
2022-10-18T17:04:21.533Z,1.88
2022-10-18T17:06:54.256Z,1.88
2022-10-18T17:09:21.977Z,1.77
2022-10-18T17:11:49.810Z,2.50
2022-10-18T17:14:17.541Z,3.35
2022-10-18T17:16:48.287Z,2.05
2022-10-18T17:22:05.706Z,2.70
2022-10-18T17:24:34.138Z,2.58
2022-10-18T17:27:02.084Z,1.95
2022-10-18T17:29:29.819Z,1.90
2022-10-18T17:31:57.585Z,2.00
2022-10-18T17:34:25.736Z,2.00
2022-10-18T17:36:54.218Z,1.90
2022-10-18T17:39:23.353Z,2.00
2022-10-18T17:41:51.065Z,2.30
2022-10-18T17:44:18.800Z,2.70
2022-10-18T17:46:46.558Z,2.40
2022-10-18T17:49:15.449Z,3.73
2022-10-18T17:51:46.341Z,2.60
2022-10-18T17:54:14.175Z,3.90
2022-10-18T17:56:45.048Z,6.17
2022-10-18T17:59:12.818Z,5.17
2022-10-18T18:01:40.668Z,5.57
2022-10-18T18:04:08.496Z,6.50
2022-10-18T18:06:39.031Z,7.10
2022-10-18T18:09:13.961Z,6.70
2022-10-18T18:11:45.420Z,7.50
2022-10-18T18:14:13.224Z,6.10
2022-10-18T18:16:44.077Z,5.63
2022-10-18T18:19:13.568Z,5.40
2022-10-18T18:21:42.704Z,6.50
2022-10-18T18:24:11.795Z,4.90
2022-10-18T18:26:41.395Z,4.80
2022-10-18T18:29:12.783Z,4.80
2022-10-18T18:31:43.758Z,4.97
2022-10-18T18:34:12.463Z,4.90
2022-10-18T18:36:42.750Z,4.50
2022-10-18T18:39:20.279Z,4.87
2022-10-18T18:42:06.937Z,4.60
2022-10-18T18:44:37.765Z,4.83
2022-10-18T18:47:10.873Z,5.03
2022-10-18T18:49:41.091Z,4.50
2022-10-18T18:52:08.832Z,4.03
2022-10-18T18:54:36.816Z,4.00
2022-10-18T18:57:05.291Z,5.30
2022-10-18T18:59:33.024Z,3.93
2022-10-18T19:02:02.168Z,7.10
2022-10-18T19:04:30.514Z,5.00
2022-10-18T19:06:58.261Z,5.80
2022-10-18T19:09:27.302Z,4.87
2022-10-18T19:11:56.526Z,5.13
2022-10-18T19:14:25.711Z,5.20
2022-10-18T19:16:55.429Z,4.70
2022-10-18T19:19:26.541Z,4.83
2022-10-18T19:21:56.758Z,5.20
2022-10-18T19:24:27.583Z,5.33
2022-10-18T19:26:57.261Z,4.40
2022-10-18T19:29:29.350Z,4.93
2022-10-18T19:32:00.120Z,4.43
2022-10-18T19:34:31.789Z,4.07
2022-10-18T19:37:00.654Z,4.57
2022-10-18T19:39:30.432Z,3.70
2022-10-18T19:42:18.689Z,4.03
2022-10-18T19:44:50.489Z,7.23
2022-10-18T19:47:18.514Z,4.97
2022-10-18T19:49:48.487Z,6.83
2022-10-18T19:52:18.688Z,5.27
2022-10-18T19:54:48.751Z,5.47
2022-10-18T19:57:16.573Z,5.93
2022-10-18T19:59:44.588Z,5.23
2022-10-18T20:02:14.165Z,5.30
2022-10-18T20:04:41.926Z,5.13
2022-10-18T20:07:11.362Z,5.60
2022-10-18T20:09:40.761Z,6.00
2022-10-18T20:12:09.758Z,5.80
2022-10-18T20:14:37.505Z,6.07
2022-10-18T20:17:06.157Z,6.50
2022-10-18T20:19:33.917Z,5.97
2022-10-18T20:22:01.659Z,6.60
2022-10-18T20:24:30.889Z,5.93
2022-10-18T20:26:58.634Z,6.97
2022-10-18T20:29:26.432Z,8.87
2022-10-18T20:31:55.588Z,9.10
2022-10-18T20:34:25.847Z,8.20
2022-10-18T20:36:54.690Z,8.40
2022-10-18T20:39:22.699Z,8.87
2022-10-18T20:41:51.860Z,9.00
2022-10-18T20:44:20.803Z,9.47
2022-10-18T20:46:48.548Z,8.03
2022-10-18T20:49:17.090Z,8.27
2022-10-18T20:51:45.361Z,8.70
2022-10-18T20:54:13.141Z,8.33
2022-10-18T20:56:41.254Z,8.60
2022-10-18T20:59:11.413Z,8.13
2022-10-18T21:01:39.779Z,7.93
2022-10-18T21:04:10.090Z,7.83
2022-10-18T21:06:40.868Z,7.10
2022-10-18T21:09:12.667Z,7.43
2022-10-18T21:11:44.621Z,7.23
2022-10-18T21:14:18.525Z,6.30
2022-10-18T21:16:47.258Z,6.67
2022-10-18T21:19:18.629Z,6.53
2022-10-18T21:21:51.881Z,6.33
2022-10-18T21:24:23.868Z,6.07
2022-10-18T21:26:52.509Z,5.60
2022-10-18T21:29:22.952Z,4.90
2022-10-18T21:31:55.021Z,5.00
2022-10-18T21:34:22.915Z,4.60
2022-10-18T21:36:51.070Z,4.37
2022-10-18T21:39:38.876Z,4.30
2022-10-18T21:42:12.222Z,4.20
2022-10-18T21:44:41.390Z,3.70
2022-10-18T21:47:15.548Z,4.27
2022-10-18T21:49:43.258Z,4.03
2022-10-18T21:52:12.075Z,4.27
2022-10-18T21:54:39.791Z,4.70
2022-10-18T21:57:07.573Z,4.20
2022-10-18T21:59:35.315Z,4.20
2022-10-18T22:02:04.448Z,4.40
2022-10-18T22:04:35.967Z,3.90
2022-10-18T22:07:04.752Z,4.10
2022-10-18T22:09:32.656Z,4.40
2022-10-18T22:12:00.483Z,4.20
2022-10-18T22:14:28.298Z,4.00
2022-10-18T22:16:56.080Z,4.40
2022-10-18T22:19:26.365Z,4.17
2022-10-18T22:21:54.215Z,4.13
2022-10-18T22:24:21.927Z,4.83
2022-10-18T22:26:50.997Z,3.77
2022-10-18T22:29:21.189Z,3.40
2022-10-18T22:31:52.110Z,4.60
2022-10-18T22:34:24.140Z,4.43
2022-10-18T22:36:53.823Z,4.33
2022-10-18T22:39:21.900Z,4.93
2022-10-18T22:41:55.504Z,3.90
2022-10-18T22:44:23.653Z,5.20
2022-10-18T22:46:51.441Z,4.10
2022-10-18T22:49:19.230Z,4.33
2022-10-18T22:51:46.980Z,4.10
2022-10-18T22:54:16.245Z,4.33
2022-10-18T22:56:44.042Z,4.50
2022-10-18T22:59:11.832Z,4.40
2022-10-18T23:01:39.575Z,4.37
2022-10-18T23:04:08.600Z,5.10
2022-10-18T23:06:38.948Z,4.50
2022-10-18T23:09:10.264Z,4.70
2022-10-18T23:11:39.339Z,5.20
2022-10-18T23:14:07.504Z,4.83
2022-10-18T23:16:35.577Z,5.00
2022-10-18T23:19:04.145Z,5.23
2022-10-18T23:21:34.250Z,5.43
2022-10-18T23:24:02.159Z,5.07
2022-10-18T23:26:30.667Z,5.77
2022-10-18T23:29:01.399Z,5.90
2022-10-18T23:31:32.138Z,5.67
2022-10-18T23:34:04.587Z,6.23
2022-10-18T23:36:35.899Z,6.67
2022-10-18T23:39:04.946Z,6.70
2022-10-18T23:41:33.293Z,6.37
2022-10-18T23:44:02.590Z,7.27
2022-10-18T23:46:30.346Z,8.37
2022-10-18T23:48:58.092Z,8.57
2022-10-18T23:51:25.832Z,8.67
2022-10-18T23:53:53.880Z,9.40
2022-10-18T23:56:21.692Z,8.40
2022-10-18T23:58:49.446Z,8.30
